Danpilot Hundested — XP4631 — position and weather

sailwx.info

Track history (hours):
 
Tides and Currents Weather Stations Pressure Air Temp Water Temp Dewpoint Dewpoint Depression Visibility Wind Speed Wind Dir Waves Ship Positions

Danpilot Hundested

Last reported at 2016-May-25 17:28 UTC. Time now 2016-May-27 19:55 UTC.
Position N 56°02' E 011°58'.

Length 10 m; draft 1.6 m.

Type: Pilot. MMSI: 219001063.

Date/timePositionNaut miles runAvg speedWind from/ knotsBaromVisibWave heightAir tempDewpointWater temp
2016-May-25 17:28N 56°02' E 011°58'1213.2
2016-May-25 16:33N 56°08' E 012°17'6 6.3
2016-May-25 15:33N 56°06' E 012°28'1 1.2
2016-May-25 14:33N 56°07' E 012°29'1 1.5
2016-May-25 13:33N 56°06' E 012°27'0 0.0
2016-May-25 12:33N 56°06' E 012°27'0 0.0
2016-May-25 11:27N 56°06' E 012°27'0 0.0
2016-May-25 10:32N 56°06' E 012°27'0 0.0
2016-May-25 09:32N 56°06' E 012°27'0 0.0
2016-May-25 08:32N 56°06' E 012°27'2 2.1
2016-May-25 07:33N 56°07' E 012°24'9 8.5
2016-May-25 06:32N 56°06' E 012°09'  
2016-May-20 00:11N 55°58' E 011°51'  
Track history (hours):
 
Tides and Currents Weather Stations Pressure Air Temp Water Temp Dewpoint Dewpoint Depression Visibility Wind Speed Wind Dir Waves Ship Positions

Danpilot Hundested

Last reported at 2016-May-25 17:28 UTC. Time now 2016-May-27 19:55 UTC.
Position N 56°02' E 011°58'.

Length 10 m; draft 1.6 m.

Type: Pilot. MMSI: 219001063.

Date/timePositionNaut miles runAvg speedWind from/ knotsBaromVisibWave heightAir tempDewpointWater temp
2016-May-25 17:28N 56°02' E 011°58'1213.2
2016-May-25 16:33N 56°08' E 012°17'6 6.3
2016-May-25 15:33N 56°06' E 012°28'1 1.2
2016-May-25 14:33N 56°07' E 012°29'1 1.5
2016-May-25 13:33N 56°06' E 012°27'0 0.0
2016-May-25 12:33N 56°06' E 012°27'0 0.0
2016-May-25 11:27N 56°06' E 012°27'0 0.0
2016-May-25 10:32N 56°06' E 012°27'0 0.0
2016-May-25 09:32N 56°06' E 012°27'0 0.0
2016-May-25 08:32N 56°06' E 012°27'2 2.1
2016-May-25 07:33N 56°07' E 012°24'9 8.5
2016-May-25 06:32N 56°06' E 012°09'  
2016-May-20 00:11N 55°58' E 011°51'  

Dump ship's entire track history